createdAt,value
2023-02-05T00:01:42.796Z,103250.34
2023-02-05T00:04:10.500Z,103247.75
2023-02-05T00:06:38.043Z,103245.00
2023-02-05T00:09:06.981Z,103238.75
2023-02-05T00:11:34.618Z,103237.81
2023-02-05T00:14:02.287Z,103241.97
2023-02-05T00:16:30.506Z,103241.97
2023-02-05T00:18:58.437Z,103247.16
2023-02-05T00:21:26.202Z,103250.69
2023-02-05T00:23:54.680Z,103258.47
2023-02-05T00:26:23.576Z,103250.81
2023-02-05T00:28:51.268Z,103256.97
2023-02-05T00:31:21.213Z,103255.13
2023-02-05T00:33:49.689Z,103257.56
2023-02-05T00:36:18.154Z,103253.28
2023-02-05T00:38:46.923Z,103248.72
2023-02-05T00:41:15.062Z,103241.81
2023-02-05T00:43:44.307Z,103229.59
2023-02-05T00:46:13.526Z,103231.41
2023-02-05T00:48:42.797Z,103222.06
2023-02-05T00:51:11.304Z,103216.75
2023-02-05T00:53:40.716Z,103214.00
2023-02-05T00:56:08.342Z,103211.13
2023-02-05T00:58:36.448Z,103216.16
2023-02-05T01:01:05.933Z,103218.63
2023-02-05T01:03:33.621Z,103218.63
2023-02-05T01:06:03.224Z,103210.06
2023-02-05T01:08:30.960Z,103203.78
2023-02-05T01:10:58.588Z,103199.53
2023-02-05T01:13:26.501Z,103190.94
2023-02-05T01:15:54.250Z,103179.63
2023-02-05T01:18:23.226Z,103177.94
2023-02-05T01:20:50.821Z,103171.81
2023-02-05T01:23:18.648Z,103162.97
2023-02-05T01:25:46.277Z,103160.22
2023-02-05T01:28:15.737Z,103160.97
2023-02-05T01:30:43.466Z,103155.63
2023-02-05T01:33:11.143Z,103146.94
2023-02-05T01:35:40.038Z,103141.59
2023-02-05T01:38:08.493Z,103144.84
2023-02-05T01:40:36.076Z,103131.69
2023-02-05T01:43:03.948Z,103124.66
2023-02-05T01:46:16.204Z,103123.59
2023-02-05T01:48:49.578Z,103123.19
2023-02-05T01:51:18.909Z,103119.53
2023-02-05T01:53:48.520Z,103118.47
2023-02-05T01:56:20.674Z,103120.78
2023-02-05T01:58:52.508Z,103111.94
2023-02-05T02:01:20.281Z,103102.94
2023-02-05T02:03:49.023Z,103097.47
2023-02-05T02:06:17.976Z,103095.47
2023-02-05T02:08:45.685Z,103090.19
2023-02-05T02:11:17.235Z,103075.06
2023-02-05T02:13:46.893Z,103072.31
2023-02-05T02:16:16.093Z,103069.41
2023-02-05T02:18:45.113Z,103076.16
2023-02-05T02:21:33.179Z,103081.06
2023-02-05T02:24:21.247Z,103088.47
2023-02-05T02:27:00.966Z,103090.91
2023-02-05T02:29:38.660Z,103096.56
2023-02-05T02:32:15.572Z,103071.25
2023-02-05T02:34:48.982Z,103076.28
2023-02-05T02:37:25.806Z,103073.56
2023-02-05T02:40:00.663Z,103077.53
2023-02-05T02:42:34.060Z,103079.09
2023-02-05T02:45:08.587Z,103078.81
2023-02-05T02:47:41.118Z,103078.66
2023-02-05T02:50:13.302Z,103079.28
2023-02-05T02:52:45.129Z,103061.72
2023-02-05T02:55:15.293Z,103066.91
2023-02-05T02:57:49.277Z,103051.97
2023-02-05T03:00:21.454Z,103049.84
2023-02-05T03:02:51.505Z,103042.84
2023-02-05T03:05:23.378Z,103029.72
2023-02-05T03:07:55.448Z,103021.94
2023-02-05T03:10:33.274Z,103006.34
2023-02-05T03:13:01.358Z,103027.88
2023-02-05T03:15:32.272Z,103029.44
2023-02-05T03:18:00.306Z,103032.78
2023-02-05T03:20:32.315Z,103027.59
2023-02-05T03:23:00.293Z,103019.66
2023-02-05T03:25:30.160Z,103027.44
2023-02-05T03:28:00.140Z,103023.03
2023-02-05T03:30:40.409Z,103022.75
2023-02-05T03:33:21.610Z,103020.75
2023-02-05T03:35:59.609Z,103030.25
2023-02-05T03:38:40.762Z,103038.66
2023-02-05T03:41:20.832Z,103034.97
2023-02-05T03:43:59.404Z,103033.03
2023-02-05T03:46:36.531Z,103033.03
2023-02-05T03:49:15.509Z,103021.75
2023-02-05T03:51:51.177Z,103021.59
2023-02-05T03:54:27.412Z,103027.69
2023-02-05T03:57:02.053Z,103021.59
2023-02-05T03:59:32.854Z,103011.22
2023-02-05T04:02:04.779Z,103017.16
2023-02-05T04:04:37.069Z,103017.94
2023-02-05T04:07:07.421Z,103030.00
2023-02-05T04:09:36.855Z,103031.53
2023-02-05T04:12:05.994Z,103023.59
2023-02-05T04:14:34.701Z,103022.69
2023-02-05T04:17:03.661Z,103027.88
2023-02-05T04:19:31.346Z,103027.00
2023-02-05T04:22:01.205Z,103037.38
2023-02-05T04:24:32.072Z,103048.66
2023-02-05T04:27:00.017Z,103046.06
2023-02-05T04:29:27.966Z,103052.78
2023-02-05T04:31:56.831Z,103043.31
2023-02-05T04:34:26.051Z,103045.91
2023-02-05T04:36:54.098Z,103053.69
2023-02-05T04:39:22.490Z,103047.59
2023-02-05T04:41:50.231Z,103046.97
2023-02-05T04:44:17.905Z,103039.19
2023-02-05T04:46:45.570Z,103047.09
2023-02-05T04:49:13.190Z,103043.59
2023-02-05T04:51:42.208Z,103037.47
2023-02-05T04:54:09.811Z,103042.81
2023-02-05T04:56:37.693Z,103045.41
2023-02-05T04:59:05.341Z,103037.63
2023-02-05T05:01:33.091Z,103037.03
2023-02-05T05:04:00.750Z,103032.88
2023-02-05T05:06:28.640Z,103024.34
2023-02-05T05:08:57.662Z,103033.78
2023-02-05T05:11:25.824Z,103042.50
2023-02-05T05:13:53.427Z,103038.22
2023-02-05T05:16:21.366Z,103038.38
2023-02-05T05:18:49.026Z,103036.69
2023-02-05T05:21:16.645Z,103040.19
2023-02-05T05:23:44.256Z,103041.13
2023-02-05T05:26:13.923Z,103023.69
2023-02-05T05:28:41.757Z,103036.81
2023-02-05T05:31:10.999Z,103034.22
2023-02-05T05:33:38.915Z,103036.97
2023-02-05T05:36:07.833Z,103032.06
2023-02-05T05:38:35.811Z,103018.31
2023-02-05T05:41:21.222Z,103001.22
2023-02-05T05:43:51.128Z,102995.38
2023-02-05T05:46:22.936Z,102992.94
2023-02-05T05:48:51.825Z,102991.09
2023-02-05T05:51:19.546Z,102994.63
2023-02-05T05:53:47.787Z,102988.50
2023-02-05T05:56:16.359Z,102980.72
2023-02-05T05:58:44.304Z,102972.78
2023-02-05T06:01:14.902Z,102978.75
2023-02-05T06:03:42.565Z,102978.75
2023-02-05T06:06:11.796Z,102987.59
2023-02-05T06:08:39.518Z,102978.13
2023-02-05T06:11:07.698Z,102985.00
2023-02-05T06:13:35.735Z,102991.25
2023-02-05T06:16:03.585Z,102974.63
2023-02-05T06:18:32.695Z,102980.84
2023-02-05T06:21:01.679Z,102987.09
2023-02-05T06:23:29.268Z,102987.09
2023-02-05T06:25:56.933Z,102981.16
2023-02-05T06:28:24.762Z,102973.50
2023-02-05T06:30:52.471Z,102977.00
2023-02-05T06:33:20.139Z,102961.44
2023-02-05T06:35:49.135Z,102971.34
2023-02-05T06:38:16.742Z,102972.25
2023-02-05T06:40:44.334Z,102968.25
2023-02-05T06:43:11.960Z,102964.91
2023-02-05T06:45:39.626Z,102963.34
2023-02-05T06:48:07.604Z,102961.66
2023-02-05T06:50:35.263Z,102964.25
2023-02-05T06:53:04.427Z,102959.19
2023-02-05T06:55:32.130Z,102956.59
2023-02-05T06:57:59.855Z,102955.03
2023-02-05T07:00:27.482Z,102950.00
2023-02-05T07:02:55.214Z,102951.84
2023-02-05T07:05:22.977Z,102951.84
2023-02-05T07:07:50.617Z,102950.13
2023-02-05T07:10:20.093Z,102939.13
2023-02-05T07:12:47.716Z,102927.94
2023-02-05T07:15:15.338Z,102931.59
2023-02-05T07:17:43.023Z,102930.06
2023-02-05T07:20:11.774Z,102920.72
2023-02-05T07:22:39.410Z,102927.13
2023-02-05T07:25:07.874Z,102917.75
2023-02-05T07:27:36.826Z,102920.66
2023-02-05T07:30:05.217Z,102938.97
2023-02-05T07:32:32.896Z,102940.91
2023-02-05T07:35:00.558Z,102946.25
2023-02-05T07:37:28.233Z,102949.00
2023-02-05T07:39:55.827Z,102945.66
2023-02-05T07:42:23.826Z,102943.31
2023-02-05T07:44:58.627Z,102947.88
2023-02-05T07:47:26.344Z,102951.38
2023-02-05T07:49:54.042Z,102946.47
2023-02-05T07:52:21.702Z,102940.50
2023-02-05T07:54:49.431Z,102931.28
2023-02-05T07:57:17.145Z,102928.03
2023-02-05T07:59:44.743Z,102914.69
2023-02-05T08:02:13.768Z,102920.28
2023-02-05T08:04:41.569Z,102909.13
2023-02-05T08:07:10.426Z,102914.59
2023-02-05T08:09:38.194Z,102914.75
2023-02-05T08:12:06.782Z,102902.63
2023-02-05T08:14:34.419Z,102904.59
2023-02-05T08:17:02.157Z,102903.19
2023-02-05T08:19:31.351Z,102896.44
2023-02-05T08:21:58.972Z,102896.84
2023-02-05T08:24:26.611Z,102898.78
2023-02-05T08:26:54.285Z,102902.72
2023-02-05T08:29:21.900Z,102904.69
2023-02-05T08:31:49.625Z,102916.13
2023-02-05T08:34:19.845Z,102911.19
2023-02-05T08:36:49.637Z,102908.84
2023-02-05T08:39:17.276Z,102908.34
2023-02-05T08:41:45.194Z,102903.28
2023-02-05T08:44:13.398Z,102903.50
2023-02-05T08:46:49.675Z,102907.19
2023-02-05T08:49:18.720Z,102897.97
2023-02-05T08:51:46.867Z,102899.91
2023-02-05T08:54:16.124Z,102892.50
2023-02-05T08:56:45.729Z,102885.72
2023-02-05T08:59:13.908Z,102891.34
2023-02-05T09:01:43.050Z,102891.75
2023-02-05T09:04:15.186Z,102878.19
2023-02-05T09:06:43.584Z,102877.66
2023-02-05T09:09:11.872Z,102875.47
2023-02-05T09:11:41.189Z,102878.47
2023-02-05T09:14:09.955Z,102889.28
2023-02-05T09:16:37.961Z,102883.53
2023-02-05T09:19:06.273Z,102889.91
2023-02-05T09:21:33.984Z,102896.41
2023-02-05T09:24:01.777Z,102896.00
2023-02-05T09:26:29.508Z,102903.31
2023-02-05T09:28:58.823Z,102890.78
2023-02-05T09:31:26.601Z,102891.06
2023-02-05T09:33:55.741Z,102895.09
2023-02-05T09:36:24.648Z,102890.25
2023-02-05T09:39:11.914Z,102882.81
2023-02-05T09:41:49.945Z,102884.13
2023-02-05T09:44:29.367Z,102887.09
2023-02-05T09:47:06.668Z,102877.06
2023-02-05T09:49:39.558Z,102870.41
2023-02-05T09:52:15.576Z,102869.84
2023-02-05T09:54:47.373Z,102872.72
2023-02-05T09:57:17.648Z,102868.00
2023-02-05T09:59:48.509Z,102869.28
2023-02-05T10:02:25.736Z,102866.25
2023-02-05T10:04:54.812Z,102879.81
2023-02-05T10:07:29.816Z,102865.31
2023-02-05T10:10:26.639Z,102864.13
2023-02-05T10:13:26.974Z,102867.31
2023-02-05T10:16:20.805Z,102853.63
2023-02-05T10:19:00.054Z,102841.06
2023-02-05T10:21:43.135Z,102853.69
2023-02-05T10:24:40.462Z,102842.69
2023-02-05T10:27:15.555Z,102842.25
2023-02-05T10:29:52.606Z,102836.63
2023-02-05T10:32:24.054Z,102838.81
2023-02-05T10:34:58.008Z,102828.75
2023-02-05T10:37:36.549Z,102826.47
2023-02-05T10:40:14.242Z,102826.81
2023-02-05T10:42:45.757Z,102830.69
2023-02-05T10:45:19.173Z,102814.50
2023-02-05T10:48:02.015Z,102828.13
2023-02-05T10:50:37.729Z,102825.06
2023-02-05T10:53:05.477Z,102826.22
2023-02-05T10:55:33.633Z,102818.72
2023-02-05T10:58:08.937Z,102827.94
2023-02-05T11:00:36.933Z,102823.97
2023-02-05T11:03:07.182Z,102827.19
2023-02-05T11:05:39.220Z,102833.97
2023-02-05T11:08:34.717Z,102820.69
2023-02-05T11:11:04.655Z,102821.38
2023-02-05T11:13:32.554Z,102817.75
2023-02-05T11:16:04.245Z,102824.78
2023-02-05T11:18:37.486Z,102828.97
2023-02-05T11:21:08.654Z,102822.72
2023-02-05T11:23:40.153Z,102824.88
2023-02-05T11:26:18.687Z,102835.66
2023-02-05T11:28:46.478Z,102830.63
2023-02-05T11:31:25.360Z,102819.59
2023-02-05T11:34:11.380Z,102826.06
2023-02-05T11:36:48.452Z,102834.34
2023-02-05T11:39:31.002Z,102841.84
2023-02-05T11:41:58.817Z,102842.28
2023-02-05T11:44:30.418Z,102839.09
2023-02-05T11:47:01.776Z,102838.38
2023-02-05T11:49:36.036Z,102829.63
2023-02-05T11:52:10.664Z,102823.56
2023-02-05T11:54:40.165Z,102830.75
2023-02-05T11:57:29.081Z,102832.78
2023-02-05T11:59:57.964Z,102828.59
2023-02-05T12:02:33.077Z,102827.88
2023-02-05T12:05:08.523Z,102834.34
2023-02-05T12:07:40.918Z,102840.81
2023-02-05T12:10:16.797Z,102838.63
2023-02-05T12:12:54.923Z,102817.41
2023-02-05T12:15:26.502Z,102813.50
2023-02-05T12:18:05.502Z,102817.44
2023-02-05T12:20:39.243Z,102817.06
2023-02-05T12:23:26.706Z,102818.59
2023-02-05T12:26:05.673Z,102814.75
2023-02-05T12:28:44.988Z,102817.19
2023-02-05T12:31:24.234Z,102817.00
2023-02-05T12:34:09.975Z,102819.63
2023-02-05T12:36:53.718Z,102826.38
2023-02-05T12:39:36.121Z,102828.06
2023-02-05T12:42:16.874Z,102830.31
2023-02-05T12:44:59.441Z,102832.53
2023-02-05T12:47:42.510Z,102828.94
2023-02-05T12:50:28.447Z,102840.44
2023-02-05T12:53:13.957Z,102844.34
2023-02-05T12:55:52.011Z,102856.03
2023-02-05T12:58:21.743Z,102838.41
2023-02-05T13:00:52.551Z,102844.34
2023-02-05T13:03:28.167Z,102846.50
2023-02-05T13:05:59.384Z,102847.00
2023-02-05T13:08:39.445Z,102857.91
2023-02-05T13:11:13.297Z,102853.28
2023-02-05T13:13:48.958Z,102862.88
2023-02-05T13:16:18.785Z,102869.72
2023-02-05T13:18:51.369Z,102863.56
2023-02-05T13:21:38.908Z,102851.25
2023-02-05T13:24:41.018Z,102837.34
2023-02-05T13:27:37.305Z,102851.19
2023-02-05T13:30:09.671Z,102860.84
2023-02-05T13:32:38.791Z,102866.00
2023-02-05T13:35:09.190Z,102864.31
2023-02-05T13:37:55.895Z,102860.66
2023-02-05T13:40:36.637Z,102860.66
2023-02-05T13:43:43.843Z,102863.16
2023-02-05T13:46:38.434Z,102873.88
2023-02-05T13:49:42.857Z,102863.47
2023-02-05T13:52:23.371Z,102875.06
2023-02-05T13:55:24.984Z,102881.84
2023-02-05T13:58:21.344Z,102879.19
2023-02-05T14:01:00.469Z,102868.56
2023-02-05T14:03:35.335Z,102856.91
2023-02-05T14:06:21.726Z,102847.09
2023-02-05T14:08:50.854Z,102841.50
2023-02-05T14:11:19.829Z,102836.72
2023-02-05T14:14:21.394Z,102834.56
2023-02-05T14:16:51.046Z,102829.66
2023-02-05T14:19:23.011Z,102829.97
2023-02-05T14:21:59.532Z,102824.00
2023-02-05T14:24:42.088Z,102833.41
2023-02-05T14:27:55.190Z,102822.44
2023-02-05T14:30:46.671Z,102826.78
2023-02-05T14:33:43.179Z,102834.56
2023-02-05T14:36:40.758Z,102841.25
2023-02-05T14:39:21.508Z,102842.06
2023-02-05T14:41:55.008Z,102855.28
2023-02-05T14:44:29.481Z,102861.53
2023-02-05T14:47:03.331Z,102860.34
2023-02-05T14:49:40.432Z,102855.63
2023-02-05T14:52:20.248Z,102863.31
2023-02-05T14:54:52.066Z,102866.78
2023-02-05T14:57:25.875Z,102878.88
2023-02-05T14:59:57.310Z,102872.53
2023-02-05T15:02:56.801Z,102888.91
2023-02-05T15:05:32.760Z,102893.38
2023-02-05T15:08:10.054Z,102903.13
2023-02-05T15:10:46.696Z,102896.06
2023-02-05T15:13:16.367Z,102912.97
2023-02-05T15:16:22.760Z,102914.00
2023-02-05T15:18:54.260Z,102920.56
2023-02-05T15:21:26.897Z,102922.06
2023-02-05T15:24:02.177Z,102925.31
2023-02-05T15:26:39.922Z,102939.97
2023-02-05T15:29:13.496Z,102938.84
2023-02-05T15:31:46.458Z,102936.81
2023-02-05T15:34:37.254Z,102931.88
2023-02-05T15:37:07.658Z,102941.06
2023-02-05T15:39:43.002Z,102938.84
2023-02-05T15:42:16.536Z,102939.94
2023-02-05T15:44:44.147Z,102919.16
2023-02-05T15:47:18.346Z,102923.69
2023-02-05T15:49:50.095Z,102927.28
2023-02-05T15:52:22.446Z,102933.59
2023-02-05T15:54:51.678Z,102933.88
2023-02-05T15:57:23.723Z,102944.41
2023-02-05T15:59:52.887Z,102940.38
2023-02-05T16:02:22.644Z,102937.91
2023-02-05T16:04:57.397Z,102948.72
2023-02-05T16:07:28.294Z,102943.88
2023-02-05T16:09:58.326Z,102940.63
2023-02-05T16:12:26.222Z,102945.06
2023-02-05T16:15:02.156Z,102962.06
2023-02-05T16:17:35.953Z,102971.06
2023-02-05T16:20:17.495Z,102968.69
2023-02-05T16:22:48.203Z,102970.72
2023-02-05T16:25:27.959Z,102970.06
2023-02-05T16:27:57.329Z,102974.59
2023-02-05T16:30:34.993Z,102970.59
2023-02-05T16:33:05.009Z,102977.00
2023-02-05T16:35:38.228Z,102978.91
2023-02-05T16:38:09.177Z,103001.88
2023-02-05T16:40:43.038Z,103000.25
2023-02-05T16:43:28.257Z,103002.19
2023-02-05T16:46:33.324Z,103002.34
2023-02-05T16:49:02.241Z,103010.28
2023-02-05T16:51:52.853Z,103013.22
2023-02-05T16:54:33.087Z,103006.34
2023-02-05T16:57:05.308Z,103024.81
2023-02-05T16:59:36.324Z,103025.94
2023-02-05T17:02:04.980Z,103024.41
2023-02-05T17:04:34.707Z,103029.00
2023-02-05T17:07:07.000Z,103033.50
2023-02-05T17:09:36.579Z,103039.94
2023-02-05T17:12:36.481Z,103031.34
2023-02-05T17:15:20.938Z,103022.00
2023-02-05T17:17:51.865Z,103024.88
2023-02-05T17:20:22.507Z,103031.31
2023-02-05T17:23:12.130Z,103030.69
2023-02-05T17:25:42.094Z,103041.66
2023-02-05T17:28:17.051Z,103035.81
2023-02-05T17:30:46.403Z,103035.28
2023-02-05T17:33:18.389Z,103036.59
2023-02-05T17:35:46.235Z,103048.34
2023-02-05T17:38:15.602Z,103047.84
2023-02-05T17:40:43.483Z,103046.53
2023-02-05T17:43:11.336Z,103048.63
2023-02-05T17:45:41.587Z,103049.94
2023-02-05T17:48:10.048Z,103060.00
2023-02-05T17:50:37.977Z,103053.34
2023-02-05T17:53:05.680Z,103059.06
2023-02-05T17:55:34.653Z,103060.34
2023-02-05T17:58:02.224Z,103064.25
2023-02-05T18:00:32.853Z,103074.19
2023-02-05T18:03:00.606Z,103079.88
2023-02-05T18:05:28.350Z,103082.88
2023-02-05T18:07:58.626Z,103086.91
2023-02-05T18:10:28.469Z,103093.41
2023-02-05T18:12:57.485Z,103098.22
2023-02-05T18:15:26.623Z,103111.75
2023-02-05T18:17:54.587Z,103115.00
2023-02-05T18:20:22.284Z,103119.69
2023-02-05T18:22:50.234Z,103118.47
2023-02-05T18:25:19.283Z,103129.41
2023-02-05T18:27:48.127Z,103118.56
2023-02-05T18:30:18.508Z,103114.78
2023-02-05T18:32:46.102Z,103121.41
2023-02-05T18:35:14.866Z,103118.53
2023-02-05T18:37:43.006Z,103121.50
2023-02-05T18:40:12.609Z,103128.88
2023-02-05T18:42:41.217Z,103122.50
2023-02-05T18:45:10.002Z,103120.56
2023-02-05T18:47:38.962Z,103111.56
2023-02-05T18:50:10.133Z,103113.88
2023-02-05T18:52:38.185Z,103103.81
2023-02-05T18:55:07.588Z,103111.50
2023-02-05T18:57:35.365Z,103105.22
2023-02-05T19:00:03.144Z,103089.38
2023-02-05T19:02:30.940Z,103093.25
2023-02-05T19:05:00.404Z,103091.25
2023-02-05T19:07:28.475Z,103090.22
2023-02-05T19:09:57.599Z,103090.09
2023-02-05T19:12:25.311Z,103103.84
2023-02-05T19:14:52.966Z,103113.19
2023-02-05T19:17:20.598Z,103116.59
2023-02-05T19:19:50.521Z,103119.94
2023-02-05T19:22:19.451Z,103132.06
2023-02-05T19:24:47.300Z,103142.47
2023-02-05T19:27:15.893Z,103152.72
2023-02-05T19:29:43.908Z,103144.91
2023-02-05T19:32:11.515Z,103131.91
2023-02-05T19:34:40.901Z,103126.72
2023-02-05T19:37:10.627Z,103131.91
2023-02-05T19:39:41.052Z,103136.31
2023-02-05T19:42:08.730Z,103137.13
2023-02-05T19:44:36.357Z,103131.13
2023-02-05T19:47:04.017Z,103141.66
2023-02-05T19:49:31.703Z,103137.41
2023-02-05T19:52:00.016Z,103133.09
2023-02-05T19:54:29.448Z,103136.59
2023-02-05T19:56:58.469Z,103145.31
2023-02-05T19:59:26.125Z,103135.84
2023-02-05T20:01:53.950Z,103137.66
2023-02-05T20:04:24.692Z,103149.75
2023-02-05T20:06:56.557Z,103143.66
2023-02-05T20:09:24.223Z,103140.25
2023-02-05T20:11:54.357Z,103140.41
2023-02-05T20:14:24.185Z,103156.94
2023-02-05T20:16:52.581Z,103163.03
2023-02-05T20:19:21.131Z,103153.69
2023-02-05T20:21:49.047Z,103160.72
2023-02-05T20:24:17.335Z,103144.31
2023-02-05T20:26:47.793Z,103150.47
2023-02-05T20:29:33.051Z,103155.91
2023-02-05T20:32:02.288Z,103162.97
2023-02-05T20:34:33.303Z,103175.22
2023-02-05T20:37:05.245Z,103186.66
2023-02-05T20:39:35.225Z,103180.66
2023-02-05T20:42:03.462Z,103179.00
2023-02-05T20:44:33.809Z,103181.84
2023-02-05T20:47:02.992Z,103168.09
2023-02-05T20:49:30.789Z,103178.63
2023-02-05T20:51:58.560Z,103191.00
2023-02-05T20:54:26.177Z,103182.44
2023-02-05T20:56:57.026Z,103190.38
2023-02-05T20:59:25.192Z,103194.03
2023-02-05T21:01:53.584Z,103190.81
2023-02-05T21:04:22.662Z,103191.72
2023-02-05T21:06:50.374Z,103181.44
2023-02-05T21:09:18.200Z,103189.25
2023-02-05T21:11:46.280Z,103182.34
2023-02-05T21:14:13.958Z,103190.44
2023-02-05T21:16:41.619Z,103193.19
2023-02-05T21:19:09.979Z,103194.22
2023-02-05T21:21:39.026Z,103188.25
2023-02-05T21:24:13.421Z,103198.81
2023-02-05T21:26:42.817Z,103195.41
2023-02-05T21:29:12.519Z,103201.66
2023-02-05T21:31:44.008Z,103207.00
2023-02-05T21:34:14.460Z,103207.00
2023-02-05T21:36:43.438Z,103213.28
2023-02-05T21:39:11.959Z,103209.00
2023-02-05T21:41:39.738Z,103208.19
2023-02-05T21:44:07.375Z,103210.94
2023-02-05T21:46:35.456Z,103210.03
2023-02-05T21:49:04.053Z,103213.53
2023-02-05T21:51:33.994Z,103211.88
2023-02-05T21:54:05.111Z,103216.28
2023-02-05T21:56:34.814Z,103216.16
2023-02-05T21:59:02.566Z,103211.88
2023-02-05T22:01:32.879Z,103218.75
2023-02-05T22:04:02.109Z,103219.53
2023-02-05T22:06:31.557Z,103215.09
2023-02-05T22:08:59.995Z,103214.19
2023-02-05T22:11:29.575Z,103220.31
2023-02-05T22:13:57.783Z,103213.53
2023-02-05T22:16:27.103Z,103223.06
2023-02-05T22:18:55.965Z,103223.06
2023-02-05T22:21:25.402Z,103227.50
2023-02-05T22:23:55.620Z,103223.19
2023-02-05T22:26:24.929Z,103226.69
2023-02-05T22:28:54.303Z,103235.44
2023-02-05T22:31:22.283Z,103233.59
2023-02-05T22:33:51.059Z,103237.25
2023-02-05T22:36:20.972Z,103230.25
2023-02-05T22:38:49.874Z,103225.03
2023-02-05T22:41:19.629Z,103217.22
2023-02-05T22:43:47.328Z,103209.13
2023-02-05T22:46:17.859Z,103216.94
2023-02-05T22:48:47.220Z,103220.16
2023-02-05T22:51:17.795Z,103219.13
2023-02-05T22:53:45.516Z,103225.75
2023-02-05T22:56:14.112Z,103215.19
2023-02-05T22:58:45.256Z,103227.28
2023-02-05T23:01:14.743Z,103221.81
2023-02-05T23:03:45.657Z,103210.22
2023-02-05T23:06:15.055Z,103198.75
2023-02-05T23:08:43.479Z,103200.91
2023-02-05T23:11:14.523Z,103203.38
2023-02-05T23:13:42.986Z,103212.47
2023-02-05T23:16:13.112Z,103199.97
2023-02-05T23:18:43.353Z,103190.16
2023-02-05T23:21:12.393Z,103187.28
2023-02-05T23:23:40.210Z,103187.78
2023-02-05T23:26:09.377Z,103193.59
2023-02-05T23:28:37.348Z,103190.84
2023-02-05T23:31:05.646Z,103191.34
2023-02-05T23:33:33.899Z,103197.97
2023-02-05T23:36:03.672Z,103193.38
2023-02-05T23:38:31.326Z,103192.97
2023-02-05T23:40:59.455Z,103198.78
2023-02-05T23:43:27.863Z,103202.78
2023-02-05T23:45:56.075Z,103205.25
2023-02-05T23:48:23.715Z,103205.59
2023-02-05T23:50:52.219Z,103201.00
2023-02-05T23:53:21.955Z,103198.28
2023-02-05T23:55:51.564Z,103203.97
2023-02-05T23:58:20.942Z,103203.66
